• Join FlightAware (Why Join?)
  • Login
  • US Flag 
06:17AM EDT


 

Airport Tracker/Info


-or-


 

Live Flight TrackerFlight Track Log ✈ N580HC ✈ 30-Oct-2013 ✈ KTUL - KDTO

Flight Track Log - Related Links

Times and Time Zones

All times are in EDT time to prevent confusion due to time zone crossing. See the N580HC flight status page for this flight to view local times or setup timezone preferences in your user account.

Time Position Orientation Groundspeed Altitude Reporting Facility
EDT Latitude Longitude Course Direction KTS MPH feet Rate Location/Type
03:26PM 36.1886 -95.8850 231° Southwest 168 193 1,300  Level Kansas City Center
03:27PM 36.1683 -95.9161 231° Southwest 215 247 3,200 3,420 Climbing Kansas City Center
03:28PM 36.1708 -95.9789 273° West 235 270 6,400 3,960 Climbing Kansas City Center
03:28PM 36.1708 -95.9958 270° West 242 278 7,200 3,540 Climbing Kansas City Center
03:29PM 36.1756 -96.0542 276° West 224 258 10,100 3,180 Climbing Kansas City Center
03:30PM 36.1783 -96.1233 273° West 209 241 13,400 2,880 Climbing Kansas City Center
03:31PM 36.1808 -96.1950 272° West 208 239 16,100 2,520 Climbing Kansas City Center
03:32PM 36.1850 -96.2733 274° West 221 254 18,700 2,760 Climbing Kansas City Center
03:33PM 36.1842 -96.3717 269° West 236 272 21,900 1,560 Climbing Kansas City Center
03:34PM 36.1331 -96.4425 228° Southwest 270 311 22,000  Climbing Kansas City Center
03:35PM 36.0747 -96.5308 231° Southwest 319 367 22,000  Level Kansas City Center
03:36PM 36.0072 -96.6328 231° Southwest 358 412 22,000  Level Kansas City Center
03:37PM 35.9433 -96.7297 231° Southwest 364 419 22,000  Level Kansas City Center
03:38PM 35.8808 -96.8253 231° Southwest 361 415 22,000  Level Kansas City Center
03:39PM 35.8183 -96.9194 231° Southwest 357 411 22,000  Level Kansas City Center
03:40PM 35.7558 -97.0133 231° Southwest 356 410 22,000  Level Kansas City Center
03:41PM 35.6825 -97.1258 231° Southwest 353 406 22,000  Level Kansas City Center
03:42PM 35.6208 -97.2175 230° Southwest 351 404 22,000  Level Kansas City Center
03:43PM 35.5833 -97.2758 232° Southwest 353 406 22,000  Level Fort Worth Center
03:44PM 35.5208 -97.3703 231° Southwest 375 432 22,000  Level Fort Worth Center
03:45PM 35.4647 -97.4569 232° Southwest 370 426 22,000  Level Fort Worth Center
03:46PM 35.4000 -97.5511 230° Southwest 370 426 22,000  Level Fort Worth Center
03:47PM 35.3164 -97.6094 210° Southwest 349 402 22,000  Level Fort Worth Center
03:48PM 35.2122 -97.5964 174° South 342 394 22,000  Level Fort Worth Center
03:49PM 35.1058 -97.5786 172° South 363 418 22,000  Level Fort Worth Center
03:50PM 35.0014 -97.5606 172° South 375 432 22,000  Level Fort Worth Center
03:51PM 34.8972 -97.5478 174° South 381 438 22,000  Level Fort Worth Center
03:52PM 34.7950 -97.5325 173° South 381 438 22,000  Level Fort Worth Center
03:53PM 34.6928 -97.5169 173° South 381 438 22,000  Level Fort Worth Center
03:54PM 34.5886 -97.5044 174° South 381 438 22,000  Level Fort Worth Center
03:55PM 34.4864 -97.4892 173° South 381 438 22,000  Level Fort Worth Center
03:56PM 34.3819 -97.4789 175° South 381 438 22,000 -480 Level Fort Worth Center
03:57PM 34.2839 -97.4764 179° South 371 427 21,100 -1,200 Descending Fort Worth Center
03:58PM 34.1900 -97.4789 181° South 358 412 19,600 -1,680 Descending Fort Worth Center
03:59PM 34.0856 -97.4711 176° South 346 398 17,800 -1,560 Descending Fort Worth Center
04:00PM 34.0000 -97.4711 180° South 332 382 16,500 -1,380 Descending Fort Worth Center
04:01PM 33.9103 -97.4686 179° South 321 369 15,100 -1,380 Descending Fort Worth Center
04:02PM 33.8206 -97.4708 181° South 321 369 13,800 -1,320 Descending Fort Worth Center
04:03PM 33.7350 -97.4708 180° South 321 369 12,500 -1,320 Descending Fort Worth Center
04:04PM 33.6536 -97.4683 179° South 321 369 11,200 -1,260 Descending Fort Worth Center
04:05PM 33.5744 -97.4683 180° South 300 345 10,000 -1,260 Descending Fort Worth Center
04:06PM 33.5056 -97.4683 180° South 274 315 8,700 -1,500 Descending Fort Worth Center
04:07PM 33.4325 -97.4383 161° South 267 307 7,100 -1,740 Descending Fort Worth Center
04:08PM 33.4200 -97.3586 101° East 231 266 5,200 -1,920 Descending Fort Worth Center
04:09PM 33.4072 -97.2667 99° East 248 285 3,300 -1,140 Descending Fort Worth Center
04:10PM 33.4008 -97.1944 96° East 243 280 3,000 -180 Descending Fort Worth Center
04:11PM 33.3989 -97.1397 92° East 195 224 3,000 -180 Level Fort Worth Center
04:12PM 33.3717 -97.1672 220° Southwest 89 102 2,700 -240 Descending Fort Worth Center
04:12PM 33.3500 -97.1833 212° Southwest 145 167 2,700  Level Dallas / Fort Worth TRACON
04:13PM 33.3167 -97.2000 203° Southwest 115 132 2,700 -300 Level Dallas / Fort Worth TRACON
04:14PM 33.2833 -97.2000 180° South 115 132 2,100 -600 Descending Dallas / Fort Worth TRACON
04:15PM 33.2500 -97.2000 180° South 115 132 1,500 540 Descending Dallas / Fort Worth TRACON
04:18PM 33.2403 -97.1925 147° Southeast 48 55 4,000 420 Climbing Fort Worth Center
04:19PM 33.2297 -97.1303 101° East 177 204 3,100 -900 Descending Fort Worth Center